Terminal Aerodrome Forecast
Issued by NWS Pocatello, ID

Home | Current Version | Previous Version | Text Only | Print | Product List | Glossary On
Versions: 1 2 3 4 5 6 7 8 9 10 11 12 13 14
000
FTUS45 KPIH 252333
TAFIDA
TAF
KIDA 252333Z 2600/2624 23011KT P6SM BKN030
     FM260300 22007KT P6SM SCT030
     FM260900 22006KT P6SM VCFG SCT030
     FM261300 VRB06KT P6SM FEW030
     FM262100 22011KT P6SM VCSH SCT030 BKN040=

USA.gov is the U.S. government's official web portal to all federal, state and local government web resources and services.